createdAt,value
2018-02-06T00:00:33.749Z,97.10
2018-02-06T00:01:33.660Z,97.48
2018-02-06T00:02:33.572Z,96.81
2018-02-06T00:03:33.486Z,97.19
2018-02-06T00:04:33.397Z,97.19
2018-02-06T00:05:33.311Z,96.81
2018-02-06T00:06:33.223Z,96.96
2018-02-06T00:07:33.137Z,97.29
2018-02-06T00:08:33.049Z,96.34
2018-02-06T00:09:32.963Z,97.00
2018-02-06T00:10:32.874Z,96.91
2018-02-06T00:11:32.787Z,97.95
2018-02-06T00:12:32.701Z,98.75
2018-02-06T00:13:32.614Z,99.04
2018-02-06T00:14:32.528Z,98.19
2018-02-06T00:15:32.438Z,97.81
2018-02-06T00:16:32.353Z,97.15
2018-02-06T00:17:32.265Z,96.68
2018-02-06T00:18:32.176Z,96.96
2018-02-06T00:19:32.096Z,97.43
2018-02-06T00:20:32.018Z,96.58
2018-02-06T00:21:31.922Z,97.24
2018-02-06T00:22:31.828Z,96.30
2018-02-06T00:23:31.742Z,95.92
2018-02-06T00:24:31.654Z,95.73
2018-02-06T00:25:31.568Z,95.07
2018-02-06T00:26:31.480Z,94.98
2018-02-06T00:27:31.393Z,95.45
2018-02-06T00:28:31.307Z,95.36
2018-02-06T00:29:31.221Z,95.92
2018-02-06T00:30:31.172Z,95.36
2018-02-06T00:31:31.046Z,96.39
2018-02-06T00:32:30.961Z,95.54
2018-02-06T00:33:30.873Z,95.36
2018-02-06T00:34:30.785Z,95.54
2018-02-06T00:35:30.700Z,96.01
2018-02-06T00:36:30.612Z,95.07
2018-02-06T00:37:30.526Z,95.26
2018-02-06T00:38:30.437Z,95.83
2018-02-06T00:39:30.351Z,96.01
2018-02-06T00:40:30.265Z,96.06
2018-02-06T00:41:30.178Z,95.26
2018-02-06T00:42:30.092Z,95.54
2018-02-06T00:43:30.007Z,94.51
2018-02-06T00:44:29.917Z,94.79
2018-02-06T00:45:29.832Z,95.54
2018-02-06T00:46:29.746Z,95.92
2018-02-06T00:47:29.808Z,95.64
2018-02-06T00:48:29.574Z,96.54
2018-02-06T00:49:29.486Z,96.58
2018-02-06T00:50:29.398Z,97.24
2018-02-06T00:51:29.313Z,97.24
2018-02-06T00:52:29.225Z,96.86
2018-02-06T00:53:29.139Z,96.30
2018-02-06T00:54:29.053Z,97.20
2018-02-06T00:55:28.967Z,96.30
2018-02-06T00:56:28.881Z,96.54
2018-02-06T00:57:28.794Z,95.73
2018-02-06T00:58:28.708Z,95.73
2018-02-06T00:59:28.620Z,95.73
2018-02-06T01:00:28.534Z,95.83
2018-02-06T01:01:28.451Z,96.11
2018-02-06T01:02:28.360Z,95.54
2018-02-06T01:03:28.275Z,95.07
2018-02-06T01:04:28.188Z,95.17
2018-02-06T01:05:28.103Z,94.89
2018-02-06T01:06:28.014Z,95.12
2018-02-06T01:07:27.929Z,95.03
2018-02-06T01:08:27.843Z,94.84
2018-02-06T01:09:27.757Z,95.03
2018-02-06T01:10:27.668Z,95.50
2018-02-06T01:11:27.581Z,95.78
2018-02-06T01:12:27.494Z,95.03
2018-02-06T01:13:27.409Z,94.79
2018-02-06T01:14:27.323Z,94.89
2018-02-06T01:15:27.238Z,95.03
2018-02-06T01:16:27.150Z,94.84
2018-02-06T01:17:27.063Z,95.12
2018-02-06T01:18:26.976Z,94.93
2018-02-06T01:19:26.889Z,95.21
2018-02-06T01:20:26.803Z,95.03
2018-02-06T01:21:26.716Z,95.31
2018-02-06T01:22:26.629Z,95.12
2018-02-06T01:23:26.543Z,94.79
2018-02-06T01:24:26.456Z,95.03
2018-02-06T01:25:26.370Z,95.03
2018-02-06T01:26:26.281Z,95.31
2018-02-06T01:27:26.196Z,95.03
2018-02-06T01:28:26.109Z,95.03
2018-02-06T01:29:26.028Z,95.03
2018-02-06T01:30:25.936Z,94.84
2018-02-06T01:31:25.850Z,94.46
2018-02-06T01:32:25.762Z,94.93
2018-02-06T01:33:25.676Z,95.21
2018-02-06T01:34:25.644Z,94.93
2018-02-06T01:35:25.503Z,94.46
2018-02-06T01:36:25.417Z,94.18
2018-02-06T01:37:25.334Z,94.84
2018-02-06T01:38:25.243Z,95.50
2018-02-06T01:39:25.156Z,95.03
2018-02-06T01:40:25.071Z,95.21
2018-02-06T01:41:24.983Z,95.03
2018-02-06T01:42:24.896Z,94.84
2018-02-06T01:43:24.810Z,95.50
2018-02-06T01:44:24.724Z,95.59
2018-02-06T01:45:24.637Z,95.21
2018-02-06T01:46:24.550Z,95.03
2018-02-06T01:47:24.466Z,95.03
2018-02-06T01:48:24.427Z,94.65
2018-02-06T01:49:24.292Z,94.18
2018-02-06T01:50:24.203Z,94.56
2018-02-06T01:51:24.119Z,94.74
2018-02-06T01:52:24.031Z,95.21
2018-02-06T01:53:23.947Z,94.27
2018-02-06T01:54:23.856Z,94.37
2018-02-06T01:55:23.770Z,94.84
2018-02-06T01:56:23.685Z,95.03
2018-02-06T01:57:23.597Z,95.31
2018-02-06T01:58:23.510Z,94.84
2018-02-06T01:59:23.424Z,95.31
2018-02-06T02:00:23.337Z,94.56
2018-02-06T02:01:23.250Z,94.46
2018-02-06T02:02:23.164Z,94.37
2018-02-06T02:03:23.077Z,94.65
2018-02-06T02:04:22.991Z,94.18
2018-02-06T02:05:22.903Z,94.46
2018-02-06T02:06:22.817Z,94.65
2018-02-06T02:07:22.731Z,95.03
2018-02-06T02:08:22.643Z,94.74
2018-02-06T02:09:22.558Z,94.46
2018-02-06T02:10:22.470Z,95.03
2018-02-06T02:11:22.384Z,94.56
2018-02-06T02:12:22.297Z,94.74
2018-02-06T02:13:22.211Z,94.74
2018-02-06T02:14:22.123Z,94.74
2018-02-06T02:15:22.037Z,94.56
2018-02-06T02:16:21.951Z,94.65
2018-02-06T02:17:21.865Z,94.65
2018-02-06T02:18:21.778Z,94.46
2018-02-06T02:19:21.691Z,94.84
2018-02-06T02:20:21.608Z,94.93
2018-02-06T02:21:21.518Z,95.21
2018-02-06T02:22:21.431Z,95.12
2018-02-06T02:23:21.343Z,95.40
2018-02-06T02:24:21.258Z,95.03
2018-02-06T02:25:21.171Z,95.12
2018-02-06T02:26:21.084Z,95.59
2018-02-06T02:27:20.996Z,94.65
2018-02-06T02:28:20.911Z,94.65
2018-02-06T02:29:20.824Z,94.93
2018-02-06T02:30:20.737Z,94.93
2018-02-06T02:31:20.649Z,94.93
2018-02-06T02:32:20.563Z,95.21
2018-02-06T02:33:20.477Z,94.74
2018-02-06T02:34:20.391Z,95.31
2018-02-06T02:35:20.304Z,94.84
2018-02-06T02:36:20.217Z,95.03
2018-02-06T02:37:20.131Z,94.74
2018-02-06T02:38:20.045Z,94.46
2018-02-06T02:39:19.958Z,94.74
2018-02-06T02:40:19.873Z,94.74
2018-02-06T02:41:19.786Z,94.27
2018-02-06T04:39:09.609Z,93.23
2018-02-06T04:40:09.523Z,93.42
2018-02-06T04:41:09.437Z,93.13
2018-02-06T04:42:09.350Z,93.32
2018-02-06T04:43:09.265Z,93.70
2018-02-06T04:44:09.179Z,93.51
2018-02-06T04:45:09.093Z,93.89
2018-02-06T04:46:09.006Z,93.99
2018-02-06T04:47:08.921Z,94.65
2018-02-06T04:48:08.836Z,94.27
2018-02-06T04:49:08.753Z,93.80
2018-02-06T04:50:08.663Z,93.99
2018-02-06T04:51:08.577Z,93.51
2018-02-06T04:52:08.491Z,93.99
2018-02-06T04:53:08.406Z,93.80
2018-02-06T04:54:08.318Z,94.18
2018-02-06T04:55:08.233Z,94.08
2018-02-06T04:56:08.146Z,93.89
2018-02-06T04:57:08.061Z,93.04
2018-02-06T04:58:07.974Z,92.85
2018-02-06T04:59:07.887Z,93.89
2018-02-06T05:00:07.801Z,93.23
2018-02-06T05:01:07.717Z,93.80
2018-02-06T05:02:07.629Z,93.42
2018-02-06T05:03:07.543Z,93.13
2018-02-06T05:04:07.457Z,93.42
2018-02-06T05:05:07.371Z,93.61
2018-02-06T05:06:07.285Z,93.80
2018-02-06T05:07:07.198Z,94.18
2018-02-06T05:08:07.111Z,94.08
2018-02-06T05:09:07.026Z,93.42
2018-02-06T05:10:06.938Z,93.42
2018-02-06T05:11:06.853Z,93.32
2018-02-06T05:12:06.767Z,93.04
2018-02-06T05:13:06.681Z,93.23
2018-02-06T05:14:06.594Z,93.23
2018-02-06T05:15:06.508Z,93.61
2018-02-06T05:16:06.422Z,93.80
2018-02-06T05:17:06.336Z,93.32
2018-02-06T05:18:06.251Z,93.61
2018-02-06T05:19:06.163Z,93.23
2018-02-06T05:20:06.078Z,93.23
2018-02-06T05:21:05.992Z,93.04
2018-02-06T05:22:05.905Z,93.23
2018-02-06T05:23:05.819Z,93.04
2018-02-06T05:24:05.733Z,93.04
2018-02-06T05:25:05.648Z,93.23
2018-02-06T05:26:05.560Z,93.32
2018-02-06T05:27:05.475Z,92.85
2018-02-06T05:28:05.389Z,93.32
2018-02-06T05:29:05.306Z,93.04
2018-02-06T05:30:05.216Z,92.76
2018-02-06T05:31:05.131Z,92.19
2018-02-06T05:32:05.045Z,92.76
2018-02-06T05:33:04.959Z,92.76
2018-02-06T05:34:04.874Z,93.51
2018-02-06T05:35:04.786Z,93.80
2018-02-06T05:36:04.703Z,93.32
2018-02-06T05:37:04.616Z,93.42
2018-02-06T05:38:04.529Z,93.51
2018-02-06T05:39:04.444Z,93.32
2018-02-06T05:40:04.358Z,92.94
2018-02-06T05:41:04.272Z,93.70
2018-02-06T05:42:04.185Z,93.13
2018-02-06T05:43:04.098Z,93.13
2018-02-06T05:44:04.014Z,93.42
2018-02-06T05:45:03.928Z,92.66
2018-02-06T05:46:03.841Z,92.47
2018-02-06T05:47:03.755Z,92.76
2018-02-06T05:48:03.670Z,93.32
2018-02-06T05:49:03.584Z,93.13
2018-02-06T05:50:03.498Z,92.47
2018-02-06T05:51:03.411Z,92.66
2018-02-06T05:52:03.326Z,92.76
2018-02-06T05:53:03.240Z,92.47
2018-02-06T05:54:03.153Z,93.13
2018-02-06T05:55:03.071Z,93.51
2018-02-06T05:56:03.004Z,93.61
2018-02-06T05:57:02.895Z,93.04
2018-02-06T05:58:02.808Z,93.23
2018-02-06T05:59:02.723Z,93.04
2018-02-06T06:00:02.637Z,92.76
2018-02-06T06:01:02.551Z,93.09
2018-02-06T06:02:02.464Z,92.66
2018-02-06T06:03:02.378Z,92.00
2018-02-06T06:04:02.293Z,92.19
2018-02-06T06:05:02.207Z,92.66
2018-02-06T06:06:02.121Z,92.76
2018-02-06T06:07:02.035Z,92.19
2018-02-06T06:08:01.950Z,92.47
2018-02-06T06:09:01.864Z,92.57
2018-02-06T06:10:01.777Z,91.91
2018-02-06T06:11:01.692Z,92.85
2018-02-06T06:12:01.605Z,92.85
2018-02-06T06:13:01.520Z,93.23
2018-02-06T06:14:01.433Z,93.04
2018-02-06T06:15:01.347Z,92.29
2018-02-06T06:16:01.262Z,92.47
2018-02-06T06:17:01.176Z,92.38
2018-02-06T06:18:01.090Z,92.10
2018-02-06T06:19:01.004Z,91.72
2018-02-06T06:20:00.919Z,92.76
2018-02-06T06:21:00.836Z,92.57
2018-02-06T06:22:00.747Z,93.13
2018-02-06T06:23:00.671Z,94.56
2018-02-06T06:24:00.575Z,94.93
2018-02-06T06:25:00.490Z,94.37
2018-02-06T06:26:00.403Z,93.80
2018-02-06T06:27:00.316Z,93.13
2018-02-06T06:28:00.231Z,93.89
2018-02-06T06:29:00.146Z,93.66
2018-02-06T06:30:00.066Z,93.70
2018-02-06T06:30:59.978Z,93.18
2018-02-06T06:31:59.888Z,93.37
2018-02-06T06:32:59.803Z,93.23
2018-02-06T06:33:59.716Z,93.04
2018-02-06T06:34:59.631Z,93.23
2018-02-06T06:35:59.548Z,92.76
2018-02-06T06:36:59.460Z,92.57
2018-02-06T06:37:59.373Z,93.61
2018-02-06T06:38:59.289Z,93.99
2018-02-06T06:39:59.202Z,93.99
2018-02-06T06:40:59.117Z,93.89
2018-02-06T06:41:59.031Z,93.89
2018-02-06T06:42:58.946Z,94.27
2018-02-06T06:43:58.861Z,94.27
2018-02-06T06:44:58.775Z,93.61
2018-02-06T06:45:58.688Z,93.51
2018-02-06T06:46:58.603Z,93.80
2018-02-06T06:47:58.518Z,93.13
2018-02-06T06:48:58.432Z,93.70
2018-02-06T06:49:58.346Z,93.32
2018-02-06T06:50:58.261Z,93.28
2018-02-06T06:51:58.175Z,93.28
2018-02-06T06:52:58.090Z,93.09
2018-02-06T06:53:58.005Z,92.52
2018-02-06T06:54:57.919Z,91.91
2018-02-06T06:55:57.834Z,91.72
2018-02-06T06:56:57.747Z,92.47
2018-02-06T06:57:57.662Z,92.57
2018-02-06T06:58:57.576Z,93.04
2018-02-06T06:59:57.490Z,93.23
2018-02-06T07:00:57.405Z,93.75
2018-02-06T07:01:57.319Z,93.66
2018-02-06T07:02:57.232Z,93.75
2018-02-06T07:03:57.148Z,93.84
2018-02-06T07:04:57.063Z,93.75
2018-02-06T07:05:56.976Z,93.47
2018-02-06T07:06:56.890Z,93.94
2018-02-06T07:07:56.805Z,92.90
2018-02-06T07:08:56.720Z,92.19
2018-02-06T07:09:56.633Z,92.52
2018-02-06T07:10:56.548Z,92.61
2018-02-06T07:11:56.462Z,93.70
2018-02-06T07:12:56.378Z,92.80
2018-02-06T07:13:56.292Z,92.47
2018-02-06T07:14:56.206Z,93.28
2018-02-06T07:15:56.121Z,93.28
2018-02-06T07:16:56.036Z,92.57
2018-02-06T07:17:55.949Z,92.05
2018-02-06T07:18:55.863Z,93.37
2018-02-06T07:19:55.778Z,93.28
2018-02-06T07:20:55.693Z,93.09
2018-02-06T07:21:55.607Z,93.37
2018-02-06T07:22:55.523Z,93.75
2018-02-06T07:23:55.436Z,93.75
2018-02-06T07:24:55.351Z,92.33
2018-02-06T07:25:55.264Z,92.33
2018-02-06T07:26:55.179Z,91.96
2018-02-06T07:27:55.094Z,92.14
2018-02-06T07:28:55.031Z,91.96
2018-02-06T07:29:54.923Z,92.19
2018-02-06T07:30:54.840Z,93.42
2018-02-06T07:31:54.752Z,93.13
2018-02-06T07:32:54.666Z,92.76
2018-02-06T07:33:54.580Z,92.24
2018-02-06T07:34:54.494Z,91.96
2018-02-06T07:35:54.409Z,91.96
2018-02-06T07:36:54.324Z,92.05
2018-02-06T07:37:54.236Z,92.00
2018-02-06T07:38:54.152Z,92.05
2018-02-06T07:39:54.068Z,92.80
2018-02-06T07:40:53.981Z,92.05
2018-02-06T07:41:53.893Z,92.05
2018-02-06T07:42:53.810Z,91.48
2018-02-06T07:43:53.725Z,91.39
2018-02-06T07:44:53.639Z,92.29
2018-02-06T07:45:53.552Z,92.14
2018-02-06T07:46:53.469Z,91.72
2018-02-06T07:47:53.382Z,92.24
2018-02-06T07:48:53.297Z,92.24
2018-02-06T07:49:53.210Z,91.96
2018-02-06T07:50:53.125Z,92.71
2018-02-06T07:51:53.041Z,92.05
2018-02-06T07:52:52.955Z,92.05
2018-02-06T07:53:52.868Z,92.52
2018-02-06T07:54:52.782Z,92.33
2018-02-06T07:55:52.727Z,91.96
2018-02-06T07:56:52.613Z,91.96
2018-02-06T07:57:52.527Z,91.48
2018-02-06T07:58:52.441Z,92.14
2018-02-06T07:59:52.357Z,92.43
2018-02-06T08:00:52.271Z,91.96
2018-02-06T08:01:52.184Z,91.96
2018-02-06T08:02:52.099Z,92.05
2018-02-06T08:03:52.014Z,92.05
2018-02-06T08:04:51.929Z,91.58
2018-02-06T08:05:51.845Z,90.91
2018-02-06T08:06:51.758Z,90.25
2018-02-06T08:07:51.673Z,91.10
2018-02-06T08:08:51.588Z,91.29
2018-02-06T08:09:51.502Z,91.48
2018-02-06T08:10:51.416Z,91.58
2018-02-06T08:11:51.331Z,91.48
2018-02-06T08:12:51.245Z,91.10
2018-02-06T08:13:51.160Z,91.48
2018-02-06T08:14:51.076Z,91.10
2018-02-06T08:15:50.990Z,91.39
2018-02-06T08:16:50.905Z,91.20
2018-02-06T08:17:50.819Z,91.10
2018-02-06T08:18:50.736Z,91.39
2018-02-06T08:19:50.700Z,92.05
2018-02-06T08:20:50.565Z,91.67
2018-02-06T08:21:50.478Z,92.05
2018-02-06T08:22:50.393Z,91.39
2018-02-06T08:23:50.308Z,91.10
2018-02-06T08:24:50.223Z,89.97
2018-02-06T08:25:50.138Z,89.59
2018-02-06T08:26:50.052Z,89.97
2018-02-06T08:27:49.968Z,91.01
2018-02-06T08:28:49.884Z,91.58
2018-02-06T08:29:49.797Z,91.48
2018-02-06T08:30:49.712Z,91.48
2018-02-06T08:31:49.626Z,91.77
2018-02-06T08:32:49.542Z,91.58
2018-02-06T08:33:49.457Z,91.77
2018-02-06T08:34:49.371Z,92.33
2018-02-06T08:35:49.291Z,92.05
2018-02-06T08:36:49.201Z,92.24
2018-02-06T08:37:49.119Z,91.86
2018-02-06T08:38:49.030Z,91.29
2018-02-06T08:39:48.945Z,91.10
2018-02-06T08:40:48.861Z,91.10
2018-02-06T08:41:48.776Z,91.01
2018-02-06T08:42:48.690Z,90.91
2018-02-06T08:43:48.906Z,91.58
2018-02-06T08:44:48.543Z,91.10
2018-02-06T08:45:48.435Z,90.91
2018-02-06T08:46:48.354Z,90.91
2018-02-06T08:47:48.267Z,91.10
2018-02-06T08:48:48.181Z,90.73
2018-02-06T08:49:48.095Z,90.44
2018-02-06T08:50:48.011Z,91.01
2018-02-06T08:51:47.927Z,91.29
2018-02-06T08:52:47.841Z,90.91
2018-02-06T08:53:47.755Z,91.10
2018-02-06T08:54:47.670Z,90.54
2018-02-06T08:55:47.585Z,90.54
2018-02-06T08:56:47.501Z,90.54
2018-02-06T08:57:47.416Z,91.01
2018-02-06T08:58:47.330Z,90.25
2018-02-06T08:59:47.246Z,90.91
2018-02-06T09:00:47.162Z,90.63
2018-02-06T09:01:47.077Z,90.91
2018-02-06T09:02:46.989Z,90.35
2018-02-06T09:03:46.907Z,90.25
2018-02-06T09:04:46.821Z,89.97
2018-02-06T09:05:46.736Z,89.59
2018-02-06T09:06:46.651Z,89.54
2018-02-06T09:07:46.566Z,89.92
2018-02-06T09:08:46.483Z,89.64
2018-02-06T09:09:46.397Z,89.54
2018-02-06T09:10:46.313Z,89.07
2018-02-06T09:11:46.228Z,88.79
2018-02-06T09:12:46.144Z,89.54
2018-02-06T09:13:46.059Z,89.54
2018-02-06T09:14:45.975Z,89.83
2018-02-06T09:15:45.890Z,89.92
2018-02-06T09:16:45.807Z,89.64
2018-02-06T09:17:45.722Z,89.17
2018-02-06T09:18:45.637Z,88.41
2018-02-06T09:19:45.554Z,88.41
2018-02-06T09:20:45.469Z,89.07
2018-02-06T09:21:45.384Z,89.26
2018-02-06T09:22:45.301Z,88.46
2018-02-06T09:23:45.221Z,88.88
2018-02-06T09:24:45.134Z,89.64
2018-02-06T09:25:45.048Z,89.73
2018-02-06T09:26:44.964Z,89.73
2018-02-06T09:27:44.879Z,90.01
2018-02-06T09:28:44.796Z,89.45
2018-02-06T09:29:44.710Z,89.73
2018-02-06T09:30:44.627Z,88.03
2018-02-06T09:31:44.544Z,87.18
2018-02-06T09:32:44.460Z,87.18
2018-02-06T09:33:44.376Z,87.84
2018-02-06T09:34:44.291Z,87.93
2018-02-06T09:35:44.209Z,87.27
2018-02-06T09:36:44.124Z,88.41
2018-02-06T09:37:44.040Z,88.88
2018-02-06T09:38:43.956Z,88.98
2018-02-06T09:39:43.873Z,89.07
2018-02-06T09:40:43.791Z,89.45
2018-02-06T09:41:43.707Z,88.88
2018-02-06T09:42:43.622Z,87.37
2018-02-06T09:43:43.539Z,86.80
2018-02-06T09:44:43.455Z,86.90
2018-02-06T09:45:43.371Z,87.46
2018-02-06T09:46:43.289Z,87.37
2018-02-06T09:47:43.205Z,86.90
2018-02-06T09:48:43.165Z,87.55
2018-02-06T09:49:43.037Z,88.12
2018-02-06T09:50:42.954Z,88.98
2018-02-06T09:51:42.870Z,88.88
2018-02-06T09:52:42.787Z,88.88
2018-02-06T09:53:42.702Z,89.07
2018-02-06T09:54:42.619Z,88.41
2018-02-06T09:55:42.536Z,88.03
2018-02-06T09:56:42.453Z,87.55
2018-02-06T09:57:42.366Z,87.04
2018-02-06T09:58:42.283Z,86.23
2018-02-06T09:59:42.201Z,85.90
2018-02-06T10:00:42.116Z,85.71
2018-02-06T10:01:42.032Z,85.42
2018-02-06T10:02:41.949Z,85.57
2018-02-06T10:03:41.865Z,85.76
2018-02-06T10:04:41.782Z,85.80
2018-02-06T10:05:41.698Z,85.80
2018-02-06T10:06:41.616Z,85.42
2018-02-06T10:07:41.532Z,85.10
2018-02-06T10:08:41.448Z,85.80
2018-02-06T10:09:41.364Z,85.90
2018-02-06T10:10:41.282Z,85.42
2018-02-06T10:11:41.199Z,85.19
2018-02-06T10:12:41.118Z,85.57
2018-02-06T10:13:41.032Z,86.47
2018-02-06T10:14:40.949Z,85.80
2018-02-06T10:15:40.867Z,85.33
2018-02-06T10:16:40.783Z,86.09
2018-02-06T10:17:40.742Z,86.09
2018-02-06T10:18:40.615Z,86.66
2018-02-06T10:19:40.532Z,84.77
2018-02-06T10:20:40.449Z,84.61
2018-02-06T10:21:40.365Z,84.20
2018-02-06T10:22:40.282Z,83.72
2018-02-06T10:23:40.200Z,83.25
2018-02-06T10:24:40.118Z,83.15
2018-02-06T10:25:40.034Z,83.76
2018-02-06T10:26:39.952Z,84.14
2018-02-06T10:27:39.870Z,84.14
2018-02-06T10:28:39.788Z,82.59
2018-02-06T10:29:39.705Z,82.50
2018-02-06T10:30:39.623Z,82.87
2018-02-06T10:31:39.541Z,83.48
2018-02-06T10:32:39.459Z,82.91
2018-02-06T10:33:39.377Z,82.53
2018-02-06T10:34:39.295Z,81.77
2018-02-06T10:35:39.213Z,81.49
2018-02-06T10:36:39.130Z,83.20
2018-02-06T10:37:39.051Z,82.25
2018-02-06T10:38:38.966Z,83.01
2018-02-06T10:39:38.885Z,82.53
2018-02-06T10:40:38.803Z,82.53
2018-02-06T10:41:38.720Z,82.44
2018-02-06T10:42:38.644Z,82.78
2018-02-06T10:43:38.558Z,82.97
2018-02-06T10:44:38.475Z,83.53
2018-02-06T10:45:38.393Z,84.29
2018-02-06T10:46:38.312Z,83.91
2018-02-06T10:47:38.229Z,83.25
2018-02-06T10:48:38.149Z,83.44
2018-02-06T10:49:38.066Z,83.72
2018-02-06T10:50:37.985Z,83.91
2018-02-06T10:51:37.902Z,83.63
2018-02-06T10:52:37.826Z,83.53
2018-02-06T10:53:37.738Z,83.72
2018-02-06T10:54:37.656Z,84.39
2018-02-06T10:55:37.574Z,84.48
2018-02-06T10:56:37.492Z,84.20
2018-02-06T10:57:37.416Z,84.58
2018-02-06T10:58:37.329Z,84.81
2018-02-06T10:59:37.245Z,83.95
2018-02-06T11:00:37.164Z,81.63
2018-02-06T11:01:37.083Z,80.30
2018-02-06T11:02:37.000Z,80.36
2018-02-06T11:03:36.919Z,80.26
2018-02-06T11:04:36.839Z,80.02
2018-02-06T11:05:36.755Z,80.21
2018-02-06T11:06:36.673Z,79.07
2018-02-06T11:07:36.594Z,78.13
2018-02-06T11:08:36.511Z,78.88
2018-02-06T11:09:36.429Z,78.98
2018-02-06T11:10:36.354Z,79.22
2018-02-06T11:11:36.267Z,80.45
2018-02-06T11:12:36.229Z,80.74
2018-02-06T11:13:36.104Z,80.55
2018-02-06T11:14:36.023Z,80.26
2018-02-06T11:15:35.941Z,80.83
2018-02-06T11:16:35.860Z,81.49
2018-02-06T11:17:35.778Z,80.83
2018-02-06T11:18:35.697Z,80.36
2018-02-06T11:19:35.616Z,81.59
2018-02-06T11:20:35.536Z,81.02
2018-02-06T11:21:35.454Z,80.64
2018-02-06T11:22:35.373Z,81.21
2018-02-06T11:23:35.291Z,81.21
2018-02-06T11:24:35.211Z,81.59
2018-02-06T11:25:35.129Z,81.68
2018-02-06T11:26:35.048Z,82.25
2018-02-06T11:27:34.966Z,82.63
2018-02-06T11:28:34.885Z,82.82
2018-02-06T11:29:34.803Z,82.34
2018-02-06T11:30:34.722Z,82.06
2018-02-06T11:31:34.642Z,81.77
2018-02-06T11:32:34.561Z,80.11
2018-02-06T11:33:34.479Z,78.98
2018-02-06T11:34:34.398Z,78.88
2018-02-06T11:35:34.317Z,78.69
2018-02-06T11:36:34.236Z,78.98
2018-02-06T11:37:34.157Z,78.64
2018-02-06T11:38:34.074Z,76.78
2018-02-06T11:39:33.993Z,74.60
2018-02-06T11:40:33.913Z,74.35
2018-02-06T11:41:33.832Z,73.31
2018-02-06T11:42:33.752Z,73.07
2018-02-06T11:43:33.674Z,71.83
2018-02-06T11:44:33.594Z,72.21
2018-02-06T11:45:33.515Z,70.37
2018-02-06T11:46:33.439Z,71.89
2018-02-06T11:47:33.358Z,72.55
2018-02-06T11:48:33.280Z,71.51
2018-02-06T11:49:33.201Z,70.69
2018-02-06T11:50:33.127Z,70.03
2018-02-06T11:51:33.046Z,69.27
2018-02-06T11:52:32.970Z,68.04
2018-02-06T11:53:32.891Z,67.75
2018-02-06T11:54:32.815Z,67.43
2018-02-06T11:55:32.739Z,69.77
2018-02-06T11:56:32.662Z,72.48
2018-02-06T11:57:32.584Z,74.05
2018-02-06T11:58:32.508Z,76.00
2018-02-06T11:59:32.431Z,77.89
2018-02-06T12:00:32.355Z,79.03
2018-02-06T12:01:32.276Z,79.17
2018-02-06T12:02:32.198Z,79.17
2018-02-06T12:03:32.121Z,77.12
2018-02-06T12:04:32.043Z,76.89
2018-02-06T12:05:31.964Z,76.12
2018-02-06T12:06:31.886Z,73.41
2018-02-06T12:07:31.808Z,72.55
2018-02-06T12:08:31.730Z,70.75
2018-02-06T12:09:31.652Z,70.62
2018-02-06T12:10:31.574Z,71.72
2018-02-06T12:11:31.496Z,74.24
2018-02-06T12:12:31.419Z,76.32
2018-02-06T12:13:31.339Z,78.37
2018-02-06T12:14:31.262Z,79.41
2018-02-06T12:15:31.183Z,79.22
2018-02-06T12:16:31.103Z,79.60
2018-02-06T12:17:31.025Z,80.17
2018-02-06T12:18:30.947Z,81.49
2018-02-06T12:19:30.869Z,81.59
2018-02-06T12:20:30.790Z,81.55
2018-02-06T12:21:30.709Z,81.74
2018-02-06T12:22:30.630Z,82.97
2018-02-06T12:23:30.549Z,82.97
2018-02-06T12:24:30.475Z,82.97
2018-02-06T12:25:30.388Z,83.48
2018-02-06T12:26:30.308Z,83.06
2018-02-06T12:27:30.228Z,82.87
2018-02-06T12:28:30.148Z,83.25
2018-02-06T12:29:30.066Z,83.34
2018-02-06T12:30:29.990Z,84.20
2018-02-06T12:31:29.905Z,84.20
2018-02-06T12:32:29.825Z,84.29
2018-02-06T12:33:29.743Z,85.05
2018-02-06T12:34:29.661Z,84.67
2018-02-06T12:35:29.581Z,84.77
2018-02-06T12:36:29.500Z,83.91
2018-02-06T12:37:29.419Z,84.29
2018-02-06T12:38:29.336Z,84.10
2018-02-06T12:39:29.257Z,83.91
2018-02-06T12:40:29.174Z,84.39
2018-02-06T12:41:29.091Z,84.86
2018-02-06T12:42:29.010Z,84.95
2018-02-06T12:43:28.929Z,84.48
2018-02-06T12:44:28.848Z,84.20
2018-02-06T12:45:28.766Z,84.39
2018-02-06T12:46:28.685Z,84.86
2018-02-06T12:47:28.601Z,84.48
2018-02-06T12:48:28.519Z,85.24
2018-02-06T12:49:28.436Z,85.24
2018-02-06T12:50:28.354Z,85.05
2018-02-06T12:51:28.274Z,85.33
2018-02-06T12:52:28.191Z,85.42
2018-02-06T12:53:28.108Z,86.28
2018-02-06T12:54:28.026Z,86.66
2018-02-06T12:55:27.945Z,85.42
2018-02-06T12:56:27.862Z,84.77
2018-02-06T12:57:27.779Z,86.18
2018-02-06T12:58:27.697Z,85.71
2018-02-06T12:59:27.617Z,85.99
2018-02-06T13:00:27.532Z,85.52
2018-02-06T13:01:27.448Z,86.37
2018-02-06T13:02:27.366Z,85.33
2018-02-06T13:03:27.286Z,85.24
2018-02-06T13:04:27.201Z,85.71
2018-02-06T13:05:27.119Z,85.33
2018-02-06T13:06:27.036Z,84.86
2018-02-06T13:07:26.955Z,85.99
2018-02-06T13:08:26.871Z,85.90
2018-02-06T13:09:26.789Z,85.90
2018-02-06T13:10:26.705Z,85.99
2018-02-06T13:11:26.624Z,86.75
2018-02-06T13:12:26.542Z,86.28
2018-02-06T13:13:26.456Z,86.47
2018-02-06T13:14:26.406Z,86.28
2018-02-06T13:15:26.292Z,86.66
2018-02-06T13:16:26.209Z,86.75
2018-02-06T13:17:26.128Z,87.32
2018-02-06T13:18:26.042Z,87.88
2018-02-06T13:19:25.959Z,86.28
2018-02-06T13:20:25.877Z,86.66
2018-02-06T13:21:25.792Z,87.70
2018-02-06T13:22:25.710Z,87.32
2018-02-06T13:23:25.629Z,87.04
2018-02-06T13:24:25.543Z,87.32
2018-02-06T13:25:25.459Z,88.07
2018-02-06T13:26:25.376Z,86.94
2018-02-06T13:27:25.295Z,86.75
2018-02-06T13:28:25.212Z,86.75
2018-02-06T13:29:25.126Z,86.75
2018-02-06T13:30:25.045Z,85.80
2018-02-06T13:31:24.961Z,85.90
2018-02-06T13:32:24.878Z,86.56
2018-02-06T13:33:24.795Z,86.94
2018-02-06T13:34:24.711Z,86.75
2018-02-06T13:35:24.629Z,86.75
2018-02-06T13:36:24.545Z,86.75
2018-02-06T13:37:24.462Z,87.23
2018-02-06T13:38:24.379Z,86.85
2018-02-06T13:39:24.296Z,87.60
2018-02-06T13:40:24.216Z,86.75
2018-02-06T13:41:24.129Z,86.56
2018-02-06T13:42:24.046Z,86.47
2018-02-06T13:43:23.963Z,86.94
2018-02-06T13:44:23.880Z,87.13
2018-02-06T13:45:23.796Z,86.85
2018-02-06T13:46:23.714Z,86.66
2018-02-06T13:47:23.633Z,86.85
2018-02-06T13:48:23.548Z,86.37
2018-02-06T13:49:23.464Z,87.51
2018-02-06T13:50:23.380Z,87.60
2018-02-06T13:51:23.297Z,86.56
2018-02-06T13:52:23.215Z,85.71
2018-02-06T13:53:23.132Z,86.56
2018-02-06T13:54:23.050Z,86.09
2018-02-06T13:55:22.965Z,86.56
2018-02-06T13:56:22.883Z,87.04
2018-02-06T13:57:22.798Z,87.41
2018-02-06T13:58:22.718Z,87.41
2018-02-06T13:59:22.632Z,85.90
2018-02-06T14:00:22.550Z,85.14
2018-02-06T14:01:22.466Z,85.61
2018-02-06T14:02:22.384Z,85.42
2018-02-06T14:03:22.302Z,86.09
2018-02-06T14:04:22.219Z,85.71
2018-02-06T14:05:22.136Z,85.33
2018-02-06T14:06:22.053Z,86.47
2018-02-06T14:07:21.971Z,86.47
2018-02-06T14:08:21.888Z,86.66
2018-02-06T14:09:21.803Z,86.94
2018-02-06T14:10:21.721Z,86.66
2018-02-06T14:11:21.638Z,85.99
2018-02-06T14:12:21.556Z,86.56
2018-02-06T14:13:21.472Z,86.75
2018-02-06T14:14:21.389Z,87.13
2018-02-06T14:15:21.306Z,86.28
2018-02-06T14:16:21.224Z,86.56
2018-02-06T14:17:21.141Z,86.47
2018-02-06T14:18:21.058Z,85.80
2018-02-06T14:19:20.974Z,87.04
2018-02-06T14:20:20.891Z,86.85
2018-02-06T14:21:20.807Z,86.47
2018-02-06T14:22:20.724Z,86.66
2018-02-06T14:23:20.642Z,86.28
2018-02-06T14:24:20.558Z,86.28
2018-02-06T14:25:20.477Z,85.99
2018-02-06T14:26:20.392Z,85.90
2018-02-06T14:27:20.309Z,86.37
2018-02-06T14:28:20.226Z,86.56
2018-02-06T14:29:20.142Z,85.90
2018-02-06T14:30:20.102Z,86.28
2018-02-06T14:31:19.977Z,86.37
2018-02-06T14:32:19.894Z,86.04
2018-02-06T14:33:19.812Z,86.13
2018-02-06T14:34:19.728Z,85.42
2018-02-06T14:35:19.650Z,85.52
2018-02-06T14:36:19.564Z,84.95
2018-02-06T14:37:19.480Z,85.05
2018-02-06T14:38:19.396Z,85.33
2018-02-06T14:39:19.314Z,85.14
2018-02-06T14:40:19.232Z,84.48
2018-02-06T14:41:19.149Z,85.42
2018-02-06T14:42:19.067Z,85.24
2018-02-06T14:43:18.983Z,85.28
2018-02-06T14:44:18.902Z,85.75
2018-02-06T14:45:18.817Z,85.28
2018-02-06T14:46:18.735Z,85.14
2018-02-06T14:47:18.652Z,84.48
2018-02-06T14:48:18.569Z,85.57